sensor_id;sensor_type;location;lat;lon;timestamp;P1;durP1;ratioP1;P2;durP2;ratioP2
21166;SDS011;10741;52.272;9.580;2023-04-03T00:01:09;4.23;;;1.90;;
21166;SDS011;10741;52.272;9.580;2023-04-03T00:03:36;4.37;;;2.00;;
21166;SDS011;10741;52.272;9.580;2023-04-03T00:06:02;5.17;;;2.03;;
21166;SDS011;10741;52.272;9.580;2023-04-03T00:08:30;5.40;;;1.50;;
21166;SDS011;10741;52.272;9.580;2023-04-03T00:10:57;3.00;;;1.60;;
21166;SDS011;10741;52.272;9.580;2023-04-03T00:13:23;7.50;;;1.93;;
21166;SDS011;10741;52.272;9.580;2023-04-03T00:15:50;7.87;;;1.87;;
21166;SDS011;10741;52.272;9.580;2023-04-03T00:18:16;4.47;;;1.63;;
21166;SDS011;10741;52.272;9.580;2023-04-03T00:20:42;6.63;;;2.60;;
21166;SDS011;10741;52.272;9.580;2023-04-03T00:23:08;5.90;;;1.83;;
21166;SDS011;10741;52.272;9.580;2023-04-03T00:25:34;7.37;;;1.90;;
21166;SDS011;10741;52.272;9.580;2023-04-03T00:28:00;5.20;;;1.67;;
21166;SDS011;10741;52.272;9.580;2023-04-03T00:30:26;3.60;;;1.80;;
21166;SDS011;10741;52.272;9.580;2023-04-03T00:32:52;4.57;;;1.77;;
21166;SDS011;10741;52.272;9.580;2023-04-03T00:35:18;5.30;;;1.70;;
21166;SDS011;10741;52.272;9.580;2023-04-03T00:37:45;4.50;;;1.57;;
21166;SDS011;10741;52.272;9.580;2023-04-03T00:40:12;5.07;;;1.80;;
21166;SDS011;10741;52.272;9.580;2023-04-03T00:42:40;3.47;;;1.33;;
21166;SDS011;10741;52.272;9.580;2023-04-03T00:47:57;5.27;;;1.80;;
21166;SDS011;10741;52.272;9.580;2023-04-03T00:50:25;5.17;;;1.43;;
21166;SDS011;10741;52.272;9.580;2023-04-03T00:52:53;2.57;;;1.30;;
21166;SDS011;10741;52.272;9.580;2023-04-03T00:55:20;3.57;;;1.60;;
21166;SDS011;10741;52.272;9.580;2023-04-03T00:57:46;4.13;;;1.43;;
21166;SDS011;10741;52.272;9.580;2023-04-03T01:00:14;3.57;;;1.80;;
21166;SDS011;10741;52.272;9.580;2023-04-03T01:02:43;3.00;;;1.57;;
21166;SDS011;10741;52.272;9.580;2023-04-03T01:05:08;5.77;;;1.60;;
21166;SDS011;10741;52.272;9.580;2023-04-03T01:07:35;6.50;;;1.70;;
21166;SDS011;10741;52.272;9.580;2023-04-03T01:10:04;6.33;;;2.30;;
21166;SDS011;10741;52.272;9.580;2023-04-03T01:12:33;6.70;;;2.67;;
21166;SDS011;10741;52.272;9.580;2023-04-03T01:15:03;5.63;;;2.83;;
21166;SDS011;10741;52.272;9.580;2023-04-03T01:25:31;6.43;;;2.27;;
21166;SDS011;10741;52.272;9.580;2023-04-03T01:27:58;5.97;;;2.47;;
21166;SDS011;10741;52.272;9.580;2023-04-03T01:30:25;3.80;;;1.60;;
21166;SDS011;10741;52.272;9.580;2023-04-03T01:32:56;4.07;;;2.00;;
21166;SDS011;10741;52.272;9.580;2023-04-03T01:35:22;4.40;;;2.00;;
21166;SDS011;10741;52.272;9.580;2023-04-03T01:37:48;3.87;;;1.60;;
21166;SDS011;10741;52.272;9.580;2023-04-03T01:40:13;3.43;;;1.73;;
21166;SDS011;10741;52.272;9.580;2023-04-03T01:42:39;2.90;;;1.43;;
21166;SDS011;10741;52.272;9.580;2023-04-03T01:45:05;4.13;;;1.47;;
21166;SDS011;10741;52.272;9.580;2023-04-03T01:47:31;5.17;;;1.57;;
21166;SDS011;10741;52.272;9.580;2023-04-03T01:49:57;5.27;;;1.60;;
21166;SDS011;10741;52.272;9.580;2023-04-03T01:52:22;5.33;;;2.10;;
21166;SDS011;10741;52.272;9.580;2023-04-03T01:54:48;3.13;;;1.20;;
21166;SDS011;10741;52.272;9.580;2023-04-03T01:57:15;4.20;;;1.30;;
21166;SDS011;10741;52.272;9.580;2023-04-03T01:59:41;3.70;;;1.40;;
21166;SDS011;10741;52.272;9.580;2023-04-03T02:02:07;4.20;;;2.10;;
21166;SDS011;10741;52.272;9.580;2023-04-03T02:04:33;7.47;;;1.70;;
21166;SDS011;10741;52.272;9.580;2023-04-03T02:06:59;4.53;;;1.70;;
21166;SDS011;10741;52.272;9.580;2023-04-03T02:09:24;2.60;;;1.37;;
21166;SDS011;10741;52.272;9.580;2023-04-03T02:11:52;5.60;;;1.63;;
21166;SDS011;10741;52.272;9.580;2023-04-03T02:14:18;4.13;;;1.70;;
21166;SDS011;10741;52.272;9.580;2023-04-03T02:16:44;5.60;;;1.80;;
21166;SDS011;10741;52.272;9.580;2023-04-03T02:19:09;8.93;;;1.97;;
21166;SDS011;10741;52.272;9.580;2023-04-03T02:21:35;4.87;;;1.60;;
21166;SDS011;10741;52.272;9.580;2023-04-03T02:24:01;5.63;;;1.57;;
21166;SDS011;10741;52.272;9.580;2023-04-03T02:26:27;5.93;;;1.73;;
21166;SDS011;10741;52.272;9.580;2023-04-03T02:28:52;6.73;;;1.50;;
21166;SDS011;10741;52.272;9.580;2023-04-03T02:31:18;3.93;;;1.50;;
21166;SDS011;10741;52.272;9.580;2023-04-03T02:33:44;3.97;;;1.87;;
21166;SDS011;10741;52.272;9.580;2023-04-03T02:36:10;3.40;;;1.50;;
21166;SDS011;10741;52.272;9.580;2023-04-03T02:38:35;5.03;;;1.60;;
21166;SDS011;10741;52.272;9.580;2023-04-03T02:41:05;2.60;;;1.80;;
21166;SDS011;10741;52.272;9.580;2023-04-03T02:43:32;3.60;;;1.60;;
21166;SDS011;10741;52.272;9.580;2023-04-03T02:45:58;5.67;;;1.77;;
21166;SDS011;10741;52.272;9.580;2023-04-03T02:48:24;8.33;;;2.07;;
21166;SDS011;10741;52.272;9.580;2023-04-03T02:50:51;5.13;;;1.77;;
21166;SDS011;10741;52.272;9.580;2023-04-03T02:53:17;2.50;;;1.50;;
21166;SDS011;10741;52.272;9.580;2023-04-03T02:55:44;4.20;;;1.90;;
21166;SDS011;10741;52.272;9.580;2023-04-03T02:58:10;6.00;;;1.43;;
21166;SDS011;10741;52.272;9.580;2023-04-03T03:00:36;6.67;;;1.63;;
21166;SDS011;10741;52.272;9.580;2023-04-03T03:03:02;4.13;;;1.47;;
21166;SDS011;10741;52.272;9.580;2023-04-03T03:05:27;2.93;;;1.70;;
21166;SDS011;10741;52.272;9.580;2023-04-03T03:07:54;3.63;;;1.63;;
21166;SDS011;10741;52.272;9.580;2023-04-03T03:10:20;5.60;;;1.87;;
21166;SDS011;10741;52.272;9.580;2023-04-03T03:12:46;5.40;;;1.87;;
21166;SDS011;10741;52.272;9.580;2023-04-03T03:15:12;2.87;;;1.73;;
21166;SDS011;10741;52.272;9.580;2023-04-03T03:17:37;5.87;;;2.10;;
21166;SDS011;10741;52.272;9.580;2023-04-03T03:20:04;4.97;;;1.83;;
21166;SDS011;10741;52.272;9.580;2023-04-03T03:22:31;4.97;;;2.17;;
21166;SDS011;10741;52.272;9.580;2023-04-03T03:24:57;4.37;;;1.67;;
21166;SDS011;10741;52.272;9.580;2023-04-03T03:27:22;8.03;;;1.87;;
21166;SDS011;10741;52.272;9.580;2023-04-03T03:29:49;5.83;;;1.53;;
21166;SDS011;10741;52.272;9.580;2023-04-03T03:32:14;4.90;;;1.33;;
21166;SDS011;10741;52.272;9.580;2023-04-03T03:34:40;5.57;;;1.73;;
21166;SDS011;10741;52.272;9.580;2023-04-03T03:37:06;6.47;;;2.27;;
21166;SDS011;10741;52.272;9.580;2023-04-03T03:39:32;3.57;;;1.60;;
21166;SDS011;10741;52.272;9.580;2023-04-03T03:41:57;5.03;;;1.90;;
21166;SDS011;10741;52.272;9.580;2023-04-03T03:44:23;5.33;;;1.70;;
21166;SDS011;10741;52.272;9.580;2023-04-03T03:46:49;3.13;;;1.53;;
21166;SDS011;10741;52.272;9.580;2023-04-03T03:49:14;4.17;;;1.70;;
21166;SDS011;10741;52.272;9.580;2023-04-03T03:51:40;7.40;;;2.13;;
21166;SDS011;10741;52.272;9.580;2023-04-03T03:54:06;7.23;;;1.80;;
21166;SDS011;10741;52.272;9.580;2023-04-03T03:56:33;3.70;;;1.70;;
21166;SDS011;10741;52.272;9.580;2023-04-03T03:58:59;5.40;;;1.87;;
21166;SDS011;10741;52.272;9.580;2023-04-03T04:01:25;4.10;;;1.60;;
21166;SDS011;10741;52.272;9.580;2023-04-03T04:03:50;3.90;;;1.70;;
21166;SDS011;10741;52.272;9.580;2023-04-03T04:06:18;5.13;;;1.60;;
21166;SDS011;10741;52.272;9.580;2023-04-03T04:08:44;5.60;;;1.70;;
21166;SDS011;10741;52.272;9.580;2023-04-03T04:11:10;2.83;;;1.87;;
21166;SDS011;10741;52.272;9.580;2023-04-03T04:13:36;6.77;;;1.73;;
21166;SDS011;10741;52.272;9.580;2023-04-03T04:16:02;5.77;;;2.00;;
21166;SDS011;10741;52.272;9.580;2023-04-03T04:18:28;2.20;;;1.50;;
21166;SDS011;10741;52.272;9.580;2023-04-03T04:20:53;5.27;;;1.77;;
21166;SDS011;10741;52.272;9.580;2023-04-03T04:23:25;3.53;;;1.53;;
21166;SDS011;10741;52.272;9.580;2023-04-03T04:25:51;4.27;;;1.67;;
21166;SDS011;10741;52.272;9.580;2023-04-03T04:28:17;6.80;;;1.80;;
21166;SDS011;10741;52.272;9.580;2023-04-03T04:30:43;4.93;;;2.23;;
21166;SDS011;10741;52.272;9.580;2023-04-03T04:33:09;4.00;;;1.60;;
21166;SDS011;10741;52.272;9.580;2023-04-03T04:35:35;9.00;;;1.83;;
21166;SDS011;10741;52.272;9.580;2023-04-03T04:38:01;7.23;;;1.87;;
21166;SDS011;10741;52.272;9.580;2023-04-03T04:40:27;6.03;;;2.13;;
21166;SDS011;10741;52.272;9.580;2023-04-03T04:42:53;6.27;;;2.47;;
21166;SDS011;10741;52.272;9.580;2023-04-03T04:45:19;6.60;;;2.73;;
21166;SDS011;10741;52.272;9.580;2023-04-03T04:47:45;4.60;;;1.80;;
21166;SDS011;10741;52.272;9.580;2023-04-03T04:50:11;4.77;;;2.20;;
21166;SDS011;10741;52.272;9.580;2023-04-03T04:52:37;7.20;;;2.43;;
21166;SDS011;10741;52.272;9.580;2023-04-03T04:55:03;6.07;;;2.10;;
21166;SDS011;10741;52.272;9.580;2023-04-03T04:57:29;6.00;;;2.27;;
21166;SDS011;10741;52.272;9.580;2023-04-03T04:59:55;5.23;;;2.00;;
21166;SDS011;10741;52.272;9.580;2023-04-03T05:02:21;5.13;;;2.30;;
21166;SDS011;10741;52.272;9.580;2023-04-03T05:04:47;9.13;;;2.30;;
21166;SDS011;10741;52.272;9.580;2023-04-03T05:07:15;6.33;;;2.13;;
21166;SDS011;10741;52.272;9.580;2023-04-03T05:09:41;6.00;;;2.10;;
21166;SDS011;10741;52.272;9.580;2023-04-03T05:12:07;5.80;;;2.13;;
21166;SDS011;10741;52.272;9.580;2023-04-03T05:14:33;5.23;;;2.30;;
21166;SDS011;10741;52.272;9.580;2023-04-03T05:16:59;2.63;;;1.50;;
21166;SDS011;10741;52.272;9.580;2023-04-03T05:19:24;5.03;;;1.80;;
21166;SDS011;10741;52.272;9.580;2023-04-03T05:21:50;7.37;;;2.13;;
21166;SDS011;10741;52.272;9.580;2023-04-03T05:24:16;6.77;;;2.37;;
21166;SDS011;10741;52.272;9.580;2023-04-03T05:26:42;5.33;;;2.23;;
21166;SDS011;10741;52.272;9.580;2023-04-03T05:29:08;5.27;;;2.33;;
21166;SDS011;10741;52.272;9.580;2023-04-03T05:31:34;5.00;;;2.37;;
21166;SDS011;10741;52.272;9.580;2023-04-03T05:34:00;7.17;;;3.07;;
21166;SDS011;10741;52.272;9.580;2023-04-03T05:36:26;5.23;;;2.10;;
21166;SDS011;10741;52.272;9.580;2023-04-03T05:38:52;10.43;;;2.57;;
21166;SDS011;10741;52.272;9.580;2023-04-03T05:41:18;6.47;;;1.93;;
21166;SDS011;10741;52.272;9.580;2023-04-03T05:43:46;7.83;;;2.43;;
21166;SDS011;10741;52.272;9.580;2023-04-03T05:46:12;7.03;;;2.50;;
21166;SDS011;10741;52.272;9.580;2023-04-03T05:48:39;7.30;;;2.60;;
21166;SDS011;10741;52.272;9.580;2023-04-03T05:51:06;6.13;;;2.30;;
21166;SDS011;10741;52.272;9.580;2023-04-03T05:53:33;7.83;;;2.57;;
21166;SDS011;10741;52.272;9.580;2023-04-03T05:56:02;4.57;;;2.30;;
21166;SDS011;10741;52.272;9.580;2023-04-03T05:58:28;7.17;;;3.30;;
21166;SDS011;10741;52.272;9.580;2023-04-03T06:00:54;11.07;;;3.90;;
21166;SDS011;10741;52.272;9.580;2023-04-03T06:03:20;11.83;;;3.87;;
21166;SDS011;10741;52.272;9.580;2023-04-03T06:05:46;9.93;;;4.70;;
21166;SDS011;10741;52.272;9.580;2023-04-03T06:08:12;10.40;;;4.63;;
21166;SDS011;10741;52.272;9.580;2023-04-03T06:10:37;5.97;;;4.13;;
21166;SDS011;10741;52.272;9.580;2023-04-03T06:13:03;9.47;;;4.20;;
21166;SDS011;10741;52.272;9.580;2023-04-03T06:15:29;8.33;;;3.30;;
21166;SDS011;10741;52.272;9.580;2023-04-03T06:17:55;6.70;;;3.03;;
21166;SDS011;10741;52.272;9.580;2023-04-03T06:20:21;5.67;;;2.70;;
21166;SDS011;10741;52.272;9.580;2023-04-03T06:22:47;6.33;;;2.40;;
21166;SDS011;10741;52.272;9.580;2023-04-03T06:25:13;7.43;;;2.70;;
21166;SDS011;10741;52.272;9.580;2023-04-03T06:27:39;8.63;;;2.60;;
21166;SDS011;10741;52.272;9.580;2023-04-03T06:30:05;8.10;;;2.50;;
21166;SDS011;10741;52.272;9.580;2023-04-03T06:32:33;8.23;;;2.40;;
21166;SDS011;10741;52.272;9.580;2023-04-03T06:34:59;5.37;;;2.37;;
21166;SDS011;10741;52.272;9.580;2023-04-03T06:37:25;7.00;;;2.10;;
21166;SDS011;10741;52.272;9.580;2023-04-03T06:39:51;6.13;;;1.60;;
21166;SDS011;10741;52.272;9.580;2023-04-03T06:42:17;3.77;;;1.97;;
21166;SDS011;10741;52.272;9.580;2023-04-03T06:44:43;6.17;;;2.93;;
21166;SDS011;10741;52.272;9.580;2023-04-03T06:47:13;7.37;;;2.47;;
21166;SDS011;10741;52.272;9.580;2023-04-03T06:49:40;8.00;;;2.50;;
21166;SDS011;10741;52.272;9.580;2023-04-03T06:52:06;7.53;;;2.57;;
21166;SDS011;10741;52.272;9.580;2023-04-03T06:54:32;6.70;;;1.87;;
21166;SDS011;10741;52.272;9.580;2023-04-03T06:56:58;5.60;;;1.93;;
21166;SDS011;10741;52.272;9.580;2023-04-03T06:59:24;5.90;;;2.37;;
21166;SDS011;10741;52.272;9.580;2023-04-03T07:01:51;6.80;;;2.70;;
21166;SDS011;10741;52.272;9.580;2023-04-03T07:04:16;8.67;;;3.40;;
21166;SDS011;10741;52.272;9.580;2023-04-03T07:06:44;8.17;;;2.43;;
21166;SDS011;10741;52.272;9.580;2023-04-03T07:09:10;4.97;;;2.50;;
21166;SDS011;10741;52.272;9.580;2023-04-03T07:11:36;5.43;;;2.47;;
21166;SDS011;10741;52.272;9.580;2023-04-03T07:14:02;6.87;;;2.10;;
21166;SDS011;10741;52.272;9.580;2023-04-03T07:16:28;5.90;;;1.80;;
21166;SDS011;10741;52.272;9.580;2023-04-03T07:18:56;4.47;;;2.10;;
21166;SDS011;10741;52.272;9.580;2023-04-03T07:21:22;5.00;;;1.70;;
21166;SDS011;10741;52.272;9.580;2023-04-03T07:23:48;6.57;;;2.40;;
21166;SDS011;10741;52.272;9.580;2023-04-03T07:26:14;6.80;;;1.80;;
21166;SDS011;10741;52.272;9.580;2023-04-03T07:28:40;5.23;;;1.83;;
21166;SDS011;10741;52.272;9.580;2023-04-03T07:31:07;3.80;;;1.87;;
21166;SDS011;10741;52.272;9.580;2023-04-03T07:33:37;4.40;;;1.87;;
21166;SDS011;10741;52.272;9.580;2023-04-03T07:36:03;4.70;;;1.77;;
21166;SDS011;10741;52.272;9.580;2023-04-03T07:38:29;3.93;;;1.90;;
21166;SDS011;10741;52.272;9.580;2023-04-03T07:40:55;4.23;;;1.70;;
21166;SDS011;10741;52.272;9.580;2023-04-03T07:43:21;6.60;;;1.70;;
21166;SDS011;10741;52.272;9.580;2023-04-03T07:45:48;5.67;;;1.90;;
21166;SDS011;10741;52.272;9.580;2023-04-03T07:48:20;5.60;;;2.43;;
21166;SDS011;10741;52.272;9.580;2023-04-03T07:50:48;3.93;;;2.07;;
21166;SDS011;10741;52.272;9.580;2023-04-03T07:53:14;3.57;;;1.60;;
21166;SDS011;10741;52.272;9.580;2023-04-03T07:55:40;5.07;;;1.70;;
21166;SDS011;10741;52.272;9.580;2023-04-03T07:58:13;4.33;;;2.07;;
21166;SDS011;10741;52.272;9.580;2023-04-03T08:00:41;7.33;;;2.07;;
21166;SDS011;10741;52.272;9.580;2023-04-03T08:03:09;4.50;;;2.40;;
21166;SDS011;10741;52.272;9.580;2023-04-03T08:05:37;4.50;;;2.20;;
21166;SDS011;10741;52.272;9.580;2023-04-03T08:08:05;5.30;;;2.30;;
21166;SDS011;10741;52.272;9.580;2023-04-03T08:10:31;4.93;;;1.63;;
21166;SDS011;10741;52.272;9.580;2023-04-03T08:12:57;3.57;;;2.20;;
21166;SDS011;10741;52.272;9.580;2023-04-03T08:15:22;3.97;;;1.60;;
21166;SDS011;10741;52.272;9.580;2023-04-03T08:17:48;6.10;;;1.70;;
21166;SDS011;10741;52.272;9.580;2023-04-03T08:20:15;4.60;;;2.00;;
21166;SDS011;10741;52.272;9.580;2023-04-03T08:22:41;7.80;;;2.93;;
21166;SDS011;10741;52.272;9.580;2023-04-03T08:25:07;3.10;;;1.40;;
21166;SDS011;10741;52.272;9.580;2023-04-03T08:27:33;7.77;;;1.73;;
21166;SDS011;10741;52.272;9.580;2023-04-03T08:29:59;3.97;;;1.80;;
21166;SDS011;10741;52.272;9.580;2023-04-03T08:32:25;3.27;;;1.33;;
21166;SDS011;10741;52.272;9.580;2023-04-03T08:34:51;6.07;;;1.60;;
21166;SDS011;10741;52.272;9.580;2023-04-03T08:37:17;4.43;;;1.73;;
21166;SDS011;10741;52.272;9.580;2023-04-03T08:39:44;4.60;;;1.37;;
21166;SDS011;10741;52.272;9.580;2023-04-03T08:42:20;2.60;;;1.17;;
21166;SDS011;10741;52.272;9.580;2023-04-03T08:45:10;6.27;;;2.00;;
21166;SDS011;10741;52.272;9.580;2023-04-03T08:50:18;3.40;;;1.50;;
21166;SDS011;10741;52.272;9.580;2023-04-03T08:52:49;5.13;;;1.70;;
21166;SDS011;10741;52.272;9.580;2023-04-03T08:55:28;3.23;;;1.23;;
21166;SDS011;10741;52.272;9.580;2023-04-03T08:58:04;4.90;;;1.50;;
21166;SDS011;10741;52.272;9.580;2023-04-03T09:03:14;4.27;;;1.40;;
21166;SDS011;10741;52.272;9.580;2023-04-03T09:05:47;5.93;;;1.43;;
21166;SDS011;10741;52.272;9.580;2023-04-03T09:11:09;4.23;;;2.00;;
21166;SDS011;10741;52.272;9.580;2023-04-03T09:16:36;3.13;;;1.40;;
21166;SDS011;10741;52.272;9.580;2023-04-03T09:21:42;2.73;;;1.20;;
21166;SDS011;10741;52.272;9.580;2023-04-03T09:24:09;2.60;;;1.23;;
21166;SDS011;10741;52.272;9.580;2023-04-03T09:29:23;4.50;;;1.20;;
21166;SDS011;10741;52.272;9.580;2023-04-03T09:31:50;2.73;;;1.30;;
21166;SDS011;10741;52.272;9.580;2023-04-03T09:34:31;4.20;;;1.20;;
21166;SDS011;10741;52.272;9.580;2023-04-03T09:37:01;4.30;;;1.20;;
21166;SDS011;10741;52.272;9.580;2023-04-03T09:39:32;7.43;;;2.60;;
21166;SDS011;10741;52.272;9.580;2023-04-03T09:42:15;2.57;;;1.47;;
21166;SDS011;10741;52.272;9.580;2023-04-03T09:44:48;2.97;;;1.43;;
21166;SDS011;10741;52.272;9.580;2023-04-03T09:47:28;4.27;;;1.30;;
21166;SDS011;10741;52.272;9.580;2023-04-03T09:52:43;2.40;;;1.10;;
21166;SDS011;10741;52.272;9.580;2023-04-03T09:55:19;3.50;;;1.10;;
21166;SDS011;10741;52.272;9.580;2023-04-03T09:57:52;3.23;;;1.80;;
21166;SDS011;10741;52.272;9.580;2023-04-03T10:00:22;1.70;;;0.93;;
21166;SDS011;10741;52.272;9.580;2023-04-03T10:02:53;2.53;;;1.00;;
21166;SDS011;10741;52.272;9.580;2023-04-03T10:05:29;4.27;;;1.90;;
21166;SDS011;10741;52.272;9.580;2023-04-03T10:08:10;3.17;;;1.10;;
21166;SDS011;10741;52.272;9.580;2023-04-03T10:10:45;1.70;;;1.00;;
21166;SDS011;10741;52.272;9.580;2023-04-03T10:13:13;3.30;;;1.30;;
21166;SDS011;10741;52.272;9.580;2023-04-03T10:15:48;5.10;;;1.07;;
21166;SDS011;10741;52.272;9.580;2023-04-03T10:18:36;1.80;;;1.10;;
21166;SDS011;10741;52.272;9.580;2023-04-03T10:21:15;4.80;;;0.90;;
21166;SDS011;10741;52.272;9.580;2023-04-03T10:24:18;2.10;;;1.50;;
21166;SDS011;10741;52.272;9.580;2023-04-03T10:34:44;2.10;;;1.27;;
21166;SDS011;10741;52.272;9.580;2023-04-03T10:39:59;4.30;;;1.33;;
21166;SDS011;10741;52.272;9.580;2023-04-03T10:45:40;1.87;;;0.97;;
21166;SDS011;10741;52.272;9.580;2023-04-03T10:53:39;2.27;;;1.00;;
21166;SDS011;10741;52.272;9.580;2023-04-03T10:56:50;2.30;;;0.80;;
21166;SDS011;10741;52.272;9.580;2023-04-03T10:59:38;3.47;;;1.50;;
21166;SDS011;10741;52.272;9.580;2023-04-03T11:04:51;2.03;;;1.17;;
21166;SDS011;10741;52.272;9.580;2023-04-03T11:07:45;1.50;;;0.70;;
21166;SDS011;10741;52.272;9.580;2023-04-03T11:10:13;2.20;;;0.90;;
21166;SDS011;10741;52.272;9.580;2023-04-03T11:12:48;2.57;;;0.90;;
21166;SDS011;10741;52.272;9.580;2023-04-03T11:15:19;2.83;;;0.80;;
21166;SDS011;10741;52.272;9.580;2023-04-03T11:18:00;3.77;;;1.10;;
21166;SDS011;10741;52.272;9.580;2023-04-03T11:20:34;5.37;;;1.20;;
21166;SDS011;10741;52.272;9.580;2023-04-03T11:23:15;1.20;;;0.90;;
21166;SDS011;10741;52.272;9.580;2023-04-03T11:25:46;3.40;;;1.13;;
21166;SDS011;10741;52.272;9.580;2023-04-03T11:28:17;1.73;;;1.00;;
21166;SDS011;10741;52.272;9.580;2023-04-03T11:30:47;2.73;;;1.10;;
21166;SDS011;10741;52.272;9.580;2023-04-03T11:36:22;2.50;;;1.10;;
21166;SDS011;10741;52.272;9.580;2023-04-03T11:38:55;2.03;;;1.07;;
21166;SDS011;10741;52.272;9.580;2023-04-03T11:41:29;2.63;;;1.30;;
21166;SDS011;10741;52.272;9.580;2023-04-03T11:46:41;3.13;;;1.23;;
21166;SDS011;10741;52.272;9.580;2023-04-03T11:58:02;1.60;;;1.10;;
21166;SDS011;10741;52.272;9.580;2023-04-03T12:05:51;9.37;;;5.03;;
21166;SDS011;10741;52.272;9.580;2023-04-03T12:13:34;5.17;;;2.77;;
21166;SDS011;10741;52.272;9.580;2023-04-03T12:16:22;6.10;;;1.70;;
21166;SDS011;10741;52.272;9.580;2023-04-03T12:21:21;3.30;;;1.57;;
21166;SDS011;10741;52.272;9.580;2023-04-03T12:29:23;3.87;;;2.03;;
21166;SDS011;10741;52.272;9.580;2023-04-03T12:42:39;1.80;;;1.00;;
21166;SDS011;10741;52.272;9.580;2023-04-03T12:45:17;1.00;;;0.90;;
21166;SDS011;10741;52.272;9.580;2023-04-03T12:47:48;2.97;;;1.30;;
21166;SDS011;10741;52.272;9.580;2023-04-03T12:50:17;2.90;;;1.40;;
21166;SDS011;10741;52.272;9.580;2023-04-03T12:52:59;1.87;;;1.07;;
21166;SDS011;10741;52.272;9.580;2023-04-03T12:55:31;3.33;;;1.00;;
21166;SDS011;10741;52.272;9.580;2023-04-03T12:57:57;1.97;;;1.00;;
21166;SDS011;10741;52.272;9.580;2023-04-03T13:00:40;5.10;;;1.17;;
21166;SDS011;10741;52.272;9.580;2023-04-03T13:03:06;3.13;;;1.00;;
21166;SDS011;10741;52.272;9.580;2023-04-03T13:05:47;2.83;;;1.00;;
21166;SDS011;10741;52.272;9.580;2023-04-03T13:08:13;4.33;;;1.30;;
21166;SDS011;10741;52.272;9.580;2023-04-03T13:13:24;1.80;;;0.80;;
21166;SDS011;10741;52.272;9.580;2023-04-03T13:15:51;3.63;;;1.07;;
21166;SDS011;10741;52.272;9.580;2023-04-03T13:18:26;1.57;;;1.10;;
21166;SDS011;10741;52.272;9.580;2023-04-03T13:20:52;2.47;;;0.97;;
21166;SDS011;10741;52.272;9.580;2023-04-03T13:23:22;2.03;;;1.00;;
21166;SDS011;10741;52.272;9.580;2023-04-03T13:25:48;1.97;;;0.90;;
21166;SDS011;10741;52.272;9.580;2023-04-03T13:28:18;2.10;;;0.93;;
21166;SDS011;10741;52.272;9.580;2023-04-03T13:30:57;1.67;;;0.90;;
21166;SDS011;10741;52.272;9.580;2023-04-03T13:33:25;2.47;;;1.47;;
21166;SDS011;10741;52.272;9.580;2023-04-03T13:36:06;2.10;;;1.27;;
21166;SDS011;10741;52.272;9.580;2023-04-03T13:38:57;3.17;;;1.30;;
21166;SDS011;10741;52.272;9.580;2023-04-03T13:41:35;3.03;;;1.50;;
21166;SDS011;10741;52.272;9.580;2023-04-03T13:46:46;3.07;;;1.10;;
21166;SDS011;10741;52.272;9.580;2023-04-03T13:51:57;1.73;;;1.30;;
21166;SDS011;10741;52.272;9.580;2023-04-03T13:54:24;2.17;;;1.40;;
21166;SDS011;10741;52.272;9.580;2023-04-03T13:56:57;2.17;;;1.47;;
21166;SDS011;10741;52.272;9.580;2023-04-03T13:59:25;3.10;;;1.40;;
21166;SDS011;10741;52.272;9.580;2023-04-03T14:04:32;1.93;;;1.40;;
21166;SDS011;10741;52.272;9.580;2023-04-03T14:07:14;3.13;;;1.30;;
21166;SDS011;10741;52.272;9.580;2023-04-03T14:09:42;2.13;;;1.20;;
21166;SDS011;10741;52.272;9.580;2023-04-03T14:12:11;1.77;;;1.10;;
21166;SDS011;10741;52.272;9.580;2023-04-03T14:14:42;1.40;;;1.30;;
21166;SDS011;10741;52.272;9.580;2023-04-03T14:17:19;3.60;;;1.43;;
21166;SDS011;10741;52.272;9.580;2023-04-03T14:19:48;2.83;;;1.07;;
21166;SDS011;10741;52.272;9.580;2023-04-03T14:22:16;3.90;;;1.30;;
21166;SDS011;10741;52.272;9.580;2023-04-03T14:24:50;1.73;;;1.00;;
21166;SDS011;10741;52.272;9.580;2023-04-03T14:27:21;2.90;;;0.80;;
21166;SDS011;10741;52.272;9.580;2023-04-03T14:29:49;3.03;;;1.10;;
21166;SDS011;10741;52.272;9.580;2023-04-03T14:32:16;2.50;;;1.10;;
21166;SDS011;10741;52.272;9.580;2023-04-03T14:34:44;3.40;;;1.00;;
21166;SDS011;10741;52.272;9.580;2023-04-03T14:37:12;1.93;;;0.83;;
21166;SDS011;10741;52.272;9.580;2023-04-03T14:39:41;2.40;;;1.03;;
21166;SDS011;10741;52.272;9.580;2023-04-03T14:42:15;2.07;;;0.93;;
21166;SDS011;10741;52.272;9.580;2023-04-03T14:44:45;3.40;;;0.70;;
21166;SDS011;10741;52.272;9.580;2023-04-03T14:47:12;2.17;;;0.90;;
21166;SDS011;10741;52.272;9.580;2023-04-03T14:49:40;1.93;;;0.93;;
21166;SDS011;10741;52.272;9.580;2023-04-03T14:52:06;2.27;;;0.90;;
21166;SDS011;10741;52.272;9.580;2023-04-03T14:54:51;2.77;;;0.93;;
21166;SDS011;10741;52.272;9.580;2023-04-03T14:57:18;2.43;;;0.80;;
21166;SDS011;10741;52.272;9.580;2023-04-03T14:59:44;2.60;;;1.27;;
21166;SDS011;10741;52.272;9.580;2023-04-03T15:04:55;2.30;;;1.00;;
21166;SDS011;10741;52.272;9.580;2023-04-03T15:07:22;2.10;;;1.20;;
21166;SDS011;10741;52.272;9.580;2023-04-03T15:09:50;1.70;;;0.90;;
21166;SDS011;10741;52.272;9.580;2023-04-03T15:12:16;2.33;;;1.07;;
21166;SDS011;10741;52.272;9.580;2023-04-03T15:14:42;1.63;;;1.00;;
21166;SDS011;10741;52.272;9.580;2023-04-03T15:17:13;1.77;;;0.90;;
21166;SDS011;10741;52.272;9.580;2023-04-03T15:19:41;2.63;;;1.33;;
21166;SDS011;10741;52.272;9.580;2023-04-03T15:22:11;1.83;;;0.93;;
21166;SDS011;10741;52.272;9.580;2023-04-03T15:24:43;2.87;;;1.30;;
21166;SDS011;10741;52.272;9.580;2023-04-03T15:27:10;2.83;;;1.10;;
21166;SDS011;10741;52.272;9.580;2023-04-03T15:29:37;2.30;;;0.90;;
21166;SDS011;10741;52.272;9.580;2023-04-03T15:32:04;1.87;;;1.23;;
21166;SDS011;10741;52.272;9.580;2023-04-03T15:34:31;1.57;;;1.00;;
21166;SDS011;10741;52.272;9.580;2023-04-03T15:36:57;1.23;;;1.10;;
21166;SDS011;10741;52.272;9.580;2023-04-03T15:39:24;4.27;;;1.20;;
21166;SDS011;10741;52.272;9.580;2023-04-03T15:41:50;3.43;;;1.10;;
21166;SDS011;10741;52.272;9.580;2023-04-03T15:44:17;1.27;;;0.90;;
21166;SDS011;10741;52.272;9.580;2023-04-03T15:46:44;3.00;;;1.00;;
21166;SDS011;10741;52.272;9.580;2023-04-03T15:49:11;2.40;;;0.90;;
21166;SDS011;10741;52.272;9.580;2023-04-03T15:51:38;2.77;;;1.20;;
21166;SDS011;10741;52.272;9.580;2023-04-03T15:54:04;2.40;;;1.00;;
21166;SDS011;10741;52.272;9.580;2023-04-03T15:56:30;3.20;;;1.00;;
21166;SDS011;10741;52.272;9.580;2023-04-03T15:58:55;1.47;;;0.87;;
21166;SDS011;10741;52.272;9.580;2023-04-03T16:01:21;2.83;;;1.00;;
21166;SDS011;10741;52.272;9.580;2023-04-03T16:03:47;3.27;;;1.30;;
21166;SDS011;10741;52.272;9.580;2023-04-03T16:06:16;1.63;;;0.90;;
21166;SDS011;10741;52.272;9.580;2023-04-03T16:08:44;2.67;;;1.20;;
21166;SDS011;10741;52.272;9.580;2023-04-03T16:11:10;2.13;;;1.10;;
21166;SDS011;10741;52.272;9.580;2023-04-03T16:13:36;4.57;;;1.37;;
21166;SDS011;10741;52.272;9.580;2023-04-03T16:16:02;4.50;;;1.13;;
21166;SDS011;10741;52.272;9.580;2023-04-03T16:18:29;1.87;;;1.17;;
21166;SDS011;10741;52.272;9.580;2023-04-03T16:20:55;1.73;;;0.90;;
21166;SDS011;10741;52.272;9.580;2023-04-03T16:23:22;2.43;;;1.10;;
21166;SDS011;10741;52.272;9.580;2023-04-03T16:25:49;2.17;;;1.00;;
21166;SDS011;10741;52.272;9.580;2023-04-03T16:28:15;2.10;;;0.97;;
21166;SDS011;10741;52.272;9.580;2023-04-03T16:30:43;1.87;;;0.97;;
21166;SDS011;10741;52.272;9.580;2023-04-03T16:33:11;2.53;;;1.10;;
21166;SDS011;10741;52.272;9.580;2023-04-03T16:35:37;2.20;;;1.10;;
21166;SDS011;10741;52.272;9.580;2023-04-03T16:38:03;2.43;;;0.93;;
21166;SDS011;10741;52.272;9.580;2023-04-03T16:40:29;2.27;;;1.13;;
21166;SDS011;10741;52.272;9.580;2023-04-03T16:42:55;2.83;;;1.20;;
21166;SDS011;10741;52.272;9.580;2023-04-03T16:45:21;2.47;;;1.10;;